createdAt,value
2022-12-20T00:00:13.469Z,4.10
2022-12-20T00:04:27.288Z,4.10
2022-12-20T00:08:41.322Z,4.20
2022-12-20T00:12:57.023Z,4.20
2022-12-20T00:17:10.827Z,4.10
2022-12-20T00:21:25.011Z,4.20
2022-12-20T00:25:38.698Z,4.20
2022-12-20T00:29:53.914Z,4.20
2022-12-20T00:34:08.006Z,4.20
2022-12-20T00:38:24.846Z,4.20
2022-12-20T00:42:38.724Z,4.20
2022-12-20T00:46:54.515Z,4.20
2022-12-20T00:51:10.200Z,4.20
2022-12-20T00:55:24.546Z,4.20
2022-12-20T00:59:38.459Z,4.20
2022-12-20T01:03:54.282Z,4.30
2022-12-20T01:08:08.416Z,4.30
2022-12-20T01:12:22.306Z,4.20
2022-12-20T01:16:38.415Z,4.20
2022-12-20T01:21:02.807Z,4.20
2022-12-20T01:25:16.737Z,4.20
2022-12-20T01:29:30.678Z,4.20
2022-12-20T01:33:44.890Z,4.20
2022-12-20T01:38:00.100Z,4.30
2022-12-20T01:42:15.719Z,4.30
2022-12-20T01:46:31.999Z,4.40
2022-12-20T01:50:48.161Z,4.40
2022-12-20T01:55:09.827Z,4.40
2022-12-20T01:59:23.991Z,4.50
2022-12-20T02:03:38.064Z,4.50
2022-12-20T02:07:54.298Z,4.50
2022-12-20T02:12:12.705Z,4.50
2022-12-20T02:16:30.792Z,4.60
2022-12-20T02:21:03.446Z,4.70
2022-12-20T02:25:38.308Z,4.70
2022-12-20T02:30:16.805Z,4.70
2022-12-20T02:34:35.047Z,4.70
2022-12-20T02:38:48.906Z,4.80
2022-12-20T02:43:28.708Z,4.70
2022-12-20T02:47:51.251Z,4.60
2022-12-20T02:52:06.859Z,4.50
2022-12-20T02:56:25.763Z,4.40
2022-12-20T03:00:44.188Z,4.30
2022-12-20T03:05:00.347Z,4.10
2022-12-20T03:09:14.365Z,4.10
2022-12-20T03:13:28.581Z,4.00
2022-12-20T03:17:55.459Z,3.90
2022-12-20T03:22:11.609Z,3.90
2022-12-20T03:26:25.467Z,3.80
2022-12-20T03:30:44.038Z,3.80
2022-12-20T03:34:58.100Z,3.80
2022-12-20T03:39:19.712Z,3.80
2022-12-20T03:43:33.820Z,3.80
2022-12-20T03:47:47.903Z,3.80
2022-12-20T03:52:01.789Z,3.80
2022-12-20T03:56:19.373Z,3.80
2022-12-20T04:00:34.980Z,3.90
2022-12-20T04:05:24.008Z,3.90
2022-12-20T04:09:38.255Z,3.90
2022-12-20T04:13:59.320Z,4.00
2022-12-20T04:18:13.611Z,4.00
2022-12-20T04:22:28.692Z,4.10
2022-12-20T04:26:50.360Z,4.10
2022-12-20T04:31:06.732Z,4.10
2022-12-20T04:35:24.267Z,4.20
2022-12-20T04:39:38.521Z,4.20
2022-12-20T04:44:07.977Z,4.20
2022-12-20T04:53:18.416Z,4.30
2022-12-20T04:57:32.489Z,4.30
2022-12-20T05:01:47.638Z,4.40
2022-12-20T05:06:13.067Z,4.40
2022-12-20T05:10:27.091Z,4.40
2022-12-20T05:14:41.855Z,4.40
2022-12-20T05:18:57.903Z,4.50
2022-12-20T05:23:31.561Z,4.50
2022-12-20T05:27:56.149Z,4.60
2022-12-20T05:32:12.688Z,4.60
2022-12-20T05:36:29.359Z,4.60
2022-12-20T05:40:49.347Z,4.70
2022-12-20T05:45:05.527Z,4.70
2022-12-20T05:49:27.320Z,4.70
2022-12-20T05:53:42.357Z,4.80
2022-12-20T05:57:58.440Z,4.80
2022-12-20T06:02:32.208Z,4.80
2022-12-20T06:06:51.056Z,4.90
2022-12-20T06:11:07.170Z,4.90
2022-12-20T06:15:33.172Z,5.00
2022-12-20T06:19:48.952Z,5.00
2022-12-20T06:24:04.400Z,5.00
2022-12-20T06:28:22.433Z,5.00
2022-12-20T06:32:38.732Z,5.00
2022-12-20T06:36:54.519Z,5.00
2022-12-20T06:41:13.121Z,5.10
2022-12-20T06:45:27.184Z,5.10
2022-12-20T06:49:43.472Z,5.20
2022-12-20T06:54:05.970Z,5.20
2022-12-20T06:58:22.648Z,5.20
2022-12-20T07:02:37.256Z,5.20
2022-12-20T07:06:52.724Z,5.20
2022-12-20T07:11:07.304Z,5.20
2022-12-20T07:15:22.201Z,5.20
2022-12-20T07:19:37.416Z,5.20
2022-12-20T07:23:52.705Z,5.20
2022-12-20T07:28:06.924Z,5.20
2022-12-20T07:32:20.786Z,5.20
2022-12-20T07:36:34.746Z,5.20
2022-12-20T07:40:50.640Z,5.20
2022-12-20T07:45:05.032Z,5.10
2022-12-20T07:49:18.769Z,5.20
2022-12-20T07:53:34.212Z,5.30
2022-12-20T07:57:52.557Z,5.50
2022-12-20T08:02:07.652Z,5.60
2022-12-20T08:06:24.229Z,5.70
2022-12-20T08:10:39.647Z,5.80
2022-12-20T08:14:56.388Z,5.80
2022-12-20T08:19:10.267Z,5.80
2022-12-20T08:23:24.488Z,5.90
2022-12-20T08:27:38.275Z,5.90
2022-12-20T08:31:53.578Z,5.90
2022-12-20T08:36:11.470Z,5.90
2022-12-20T08:40:25.452Z,5.90
2022-12-20T08:44:39.437Z,5.90
2022-12-20T08:48:54.980Z,5.90
2022-12-20T08:53:08.735Z,5.80
2022-12-20T08:57:22.691Z,5.80
2022-12-20T09:01:36.805Z,5.80
2022-12-20T09:05:52.063Z,5.80
2022-12-20T09:10:06.617Z,5.80
2022-12-20T09:14:20.735Z,5.80
2022-12-20T09:18:34.955Z,5.80
2022-12-20T09:22:50.044Z,5.80
2022-12-20T09:27:03.814Z,5.80
2022-12-20T09:31:20.629Z,5.90
2022-12-20T09:35:34.774Z,5.90
2022-12-20T09:39:51.892Z,5.90
2022-12-20T09:44:13.742Z,5.90
2022-12-20T09:48:33.520Z,6.00
2022-12-20T09:53:03.591Z,6.00
2022-12-20T09:57:29.049Z,6.10
2022-12-20T10:01:46.446Z,6.10
2022-12-20T10:06:08.507Z,6.20
2022-12-20T10:10:51.847Z,6.20
2022-12-20T10:15:18.305Z,6.30
2022-12-20T10:19:50.581Z,6.50
2022-12-20T10:24:09.725Z,6.60
2022-12-20T10:28:29.886Z,6.60
2022-12-20T10:32:48.136Z,6.60
2022-12-20T10:37:16.049Z,6.60
2022-12-20T10:41:32.366Z,6.50
2022-12-20T10:45:56.720Z,6.60
2022-12-20T10:50:16.957Z,6.60
2022-12-20T10:54:34.062Z,6.70
2022-12-20T10:58:55.584Z,6.70
2022-12-20T11:03:15.810Z,6.80
2022-12-20T11:07:33.422Z,6.90
2022-12-20T11:11:59.567Z,7.00
2022-12-20T11:16:36.176Z,7.10
2022-12-20T11:21:04.505Z,7.30
2022-12-20T11:25:40.738Z,7.40
2022-12-20T11:30:18.537Z,7.50
2022-12-20T11:34:40.271Z,7.60
2022-12-20T11:39:01.116Z,7.70
2022-12-20T11:44:01.122Z,7.60
2022-12-20T11:48:31.483Z,7.60
2022-12-20T11:52:48.942Z,7.60
2022-12-20T11:57:07.825Z,7.60
2022-12-20T12:01:28.175Z,7.60
2022-12-20T12:05:45.717Z,7.50
2022-12-20T12:10:03.964Z,7.40
2022-12-20T12:14:28.467Z,7.30
2022-12-20T12:18:44.208Z,7.20
2022-12-20T12:23:03.935Z,7.00
2022-12-20T12:27:25.172Z,7.00
2022-12-20T12:31:45.150Z,7.00
2022-12-20T12:36:22.522Z,6.90
2022-12-20T12:41:07.372Z,7.00
2022-12-20T12:45:24.379Z,7.10
2022-12-20T12:49:38.667Z,7.10
2022-12-20T12:53:56.480Z,7.20
2022-12-20T12:58:16.537Z,7.20
2022-12-20T13:02:50.947Z,7.20
2022-12-20T13:07:30.614Z,7.20
2022-12-20T13:11:47.513Z,7.20
2022-12-20T13:16:12.700Z,7.20
2022-12-20T13:20:27.985Z,7.20
2022-12-20T13:24:55.791Z,7.20
2022-12-20T13:29:26.567Z,7.30
2022-12-20T13:33:42.900Z,7.30
2022-12-20T13:37:59.075Z,7.40
2022-12-20T13:42:26.463Z,7.30
2022-12-20T13:46:48.296Z,7.40
2022-12-20T13:51:03.061Z,7.40
2022-12-20T13:55:24.290Z,7.30
2022-12-20T13:59:38.126Z,7.30
2022-12-20T14:03:54.455Z,7.30
2022-12-20T14:08:11.506Z,7.30
2022-12-20T14:12:28.748Z,7.30
2022-12-20T14:16:45.405Z,7.30
2022-12-20T14:21:05.055Z,7.30
2022-12-20T14:25:24.461Z,7.20
2022-12-20T14:29:38.434Z,7.20
2022-12-20T14:33:52.884Z,7.10
2022-12-20T14:38:22.580Z,7.10
2022-12-20T14:42:37.887Z,7.10
2022-12-20T14:46:54.073Z,7.00
2022-12-20T14:51:07.950Z,7.00
2022-12-20T14:55:25.703Z,7.00
2022-12-20T14:59:39.508Z,6.90
2022-12-20T15:03:55.767Z,6.90
2022-12-20T15:08:18.419Z,6.80
2022-12-20T15:12:38.852Z,6.80
2022-12-20T15:16:55.817Z,6.80
2022-12-20T15:21:15.360Z,6.70
2022-12-20T15:25:36.620Z,6.60
2022-12-20T15:30:13.916Z,6.50
2022-12-20T15:34:31.507Z,6.50
2022-12-20T15:43:21.853Z,6.40
2022-12-20T15:47:36.939Z,6.40
2022-12-20T15:51:52.686Z,6.50
2022-12-20T15:56:06.684Z,6.50
2022-12-20T16:00:21.173Z,6.50
2022-12-20T16:04:36.464Z,6.50
2022-12-20T16:08:50.125Z,6.50
2022-12-20T16:13:04.120Z,6.50
2022-12-20T16:17:18.169Z,6.50
2022-12-20T16:21:36.093Z,6.40
2022-12-20T16:25:50.832Z,6.40
2022-12-20T16:30:04.901Z,6.50
2022-12-20T16:34:20.572Z,6.50
2022-12-20T16:38:35.644Z,6.50
2022-12-20T16:42:49.387Z,6.50
2022-12-20T16:47:03.191Z,6.60
2022-12-20T16:51:25.693Z,6.50
2022-12-20T16:55:41.261Z,6.60
2022-12-20T16:59:55.199Z,6.60
2022-12-20T17:04:14.840Z,6.60
2022-12-20T17:13:01.860Z,6.60
2022-12-20T17:17:15.725Z,6.60
2022-12-20T17:26:03.092Z,6.70
2022-12-20T17:30:19.050Z,6.70
2022-12-20T17:34:32.929Z,6.70
2022-12-20T17:38:49.478Z,6.70
2022-12-20T17:43:03.320Z,6.70
2022-12-20T17:47:18.387Z,6.70
2022-12-20T17:51:32.351Z,6.70
2022-12-20T17:55:46.089Z,6.70
2022-12-20T17:59:59.848Z,6.70
2022-12-20T18:04:17.176Z,6.70
2022-12-20T18:08:31.076Z,6.70
2022-12-20T18:12:45.225Z,6.70
2022-12-20T18:16:59.068Z,6.70
2022-12-20T18:21:16.217Z,6.70
2022-12-20T18:25:30.461Z,6.70
2022-12-20T18:29:44.769Z,6.60
2022-12-20T18:33:59.678Z,6.60
2022-12-20T18:38:16.517Z,6.60
2022-12-20T18:42:30.224Z,6.70
2022-12-20T18:46:43.950Z,6.70
2022-12-20T18:50:57.765Z,6.70
2022-12-20T18:55:12.828Z,6.70
2022-12-20T18:59:26.896Z,6.70
2022-12-20T19:03:40.815Z,6.70
2022-12-20T19:07:54.706Z,6.70
2022-12-20T19:12:10.244Z,6.70
2022-12-20T19:16:26.457Z,6.70
2022-12-20T19:20:40.677Z,6.70
2022-12-20T19:24:55.553Z,6.70
2022-12-20T19:29:11.773Z,6.70
2022-12-20T19:33:25.813Z,6.70
2022-12-20T19:37:40.249Z,6.70
2022-12-20T19:46:30.385Z,6.70
2022-12-20T19:50:44.286Z,6.50
2022-12-20T19:55:03.112Z,6.30
2022-12-20T19:59:32.351Z,6.10
2022-12-20T20:03:53.748Z,6.00
2022-12-20T20:08:12.476Z,6.00
2022-12-20T20:12:30.571Z,5.90
2022-12-20T20:16:48.580Z,5.90
2022-12-20T20:21:10.041Z,6.00
2022-12-20T20:25:27.781Z,6.00
2022-12-20T20:29:45.878Z,6.00
2022-12-20T20:34:04.481Z,6.00
2022-12-20T20:38:23.891Z,6.00
2022-12-20T20:42:43.026Z,6.00
2022-12-20T20:47:01.112Z,6.00
2022-12-20T20:51:19.126Z,6.00
2022-12-20T20:55:38.843Z,6.10
2022-12-20T20:59:58.324Z,6.00
2022-12-20T21:04:16.480Z,6.10
2022-12-20T21:08:34.399Z,6.10
2022-12-20T21:12:54.258Z,6.20
2022-12-20T21:17:13.688Z,6.10
2022-12-20T21:21:31.666Z,6.20
2022-12-20T21:25:57.217Z,6.20
2022-12-20T21:30:18.577Z,6.20
2022-12-20T21:34:38.469Z,6.20
2022-12-20T21:38:57.983Z,6.30
2022-12-20T21:43:17.215Z,6.30
2022-12-20T21:47:37.600Z,6.30
2022-12-20T21:51:56.981Z,6.30
2022-12-20T21:56:15.962Z,6.40
2022-12-20T22:00:35.975Z,6.40
2022-12-20T22:04:55.173Z,6.50
2022-12-20T22:09:17.011Z,6.50
2022-12-20T22:13:41.195Z,6.50
2022-12-20T22:18:00.526Z,6.50
2022-12-20T22:22:21.041Z,6.50
2022-12-20T22:26:41.108Z,6.50
2022-12-20T22:31:00.578Z,6.50
2022-12-20T22:35:22.656Z,6.50
2022-12-20T22:39:44.359Z,6.50
2022-12-20T22:44:03.899Z,6.50
2022-12-20T22:48:21.854Z,6.50
2022-12-20T22:52:40.352Z,6.60
2022-12-20T22:56:59.374Z,6.60
2022-12-20T23:01:21.350Z,6.60
2022-12-20T23:05:40.468Z,6.60
2022-12-20T23:09:59.187Z,6.60
2022-12-20T23:14:33.828Z,6.60
2022-12-20T23:18:56.036Z,6.60
2022-12-20T23:23:14.175Z,6.60
2022-12-20T23:27:32.021Z,6.60
2022-12-20T23:31:51.717Z,6.70
2022-12-20T23:36:12.517Z,6.70
2022-12-20T23:40:32.432Z,6.70
2022-12-20T23:44:50.426Z,6.60
2022-12-20T23:49:10.223Z,6.60
2022-12-20T23:53:29.655Z,6.50
2022-12-20T23:57:47.806Z,6.50
